Lady Joy — V7NN5 — position and weather

sailwx.info

Track history (hours):
 
Tides and Currents Weather Stations Pressure Air Temp Water Temp Dewpoint Dewpoint Depression Visibility Wind Speed Wind Dir Waves Ship Positions

Lady Joy

Last reported at 2017-Sep-14 20:07 UTC. Time now 2017-Sep-20 18:22 UTC.
Position N 25°58' W 079°33'.

Length 50 m; draft 2.8 m.

Type: Pleasure craft. MMSI: 538080044.

Date/timePositionNaut miles runAvg speedWind from/ knotsBaromVisibWave heightAir tempDewpointWater temp
2017-Sep-14 20:07N 25°58' W 079°33'1 8.6
2017-Sep-14 19:57N 25°58' W 079°35'4 8.4
2017-Sep-14 19:30N 25°57' W 079°39'4 8.4
2017-Sep-14 19:00N 25°56' W 079°43'4 8.8
2017-Sep-14 18:30N 25°55' W 079°48'3 6.0
2017-Sep-14 18:01N 25°53' W 079°51'4 7.8
2017-Sep-14 17:30N 25°52' W 079°55'611.9
2017-Sep-14 17:00N 25°50' W 080°01'611.2
2017-Sep-14 16:30N 25°46' W 080°06'3 6.0
2017-Sep-14 16:00N 25°46' W 080°09'0 0.0
2017-Sep-14 15:30N 25°46' W 080°09'0 0.0
2017-Sep-14 15:00N 25°46' W 080°09'0 0.0
2017-Sep-14 14:30N 25°46' W 080°09'0 0.0
2017-Sep-14 14:00N 25°46' W 080°09'1 1.1
2017-Sep-14 13:31N 25°46' W 080°08'3 5.0
2017-Sep-14 13:00N 25°46' W 080°06'2 4.2
2017-Sep-14 12:30N 25°45' W 080°04'611.8
2017-Sep-14 12:00N 25°39' W 080°02'611.8
2017-Sep-14 11:30N 25°34' W 080°00'  
2017-Sep-06 22:35N 25°24' W 080°07'1 8.6
2017-Sep-06 22:30N 25°24' W 080°07'4 7.7
2017-Sep-06 22:00N 25°28' W 080°06'4 7.4
2017-Sep-06 21:30N 25°32' W 080°05'4 8.1
2017-Sep-06 21:00N 25°36' W 080°05'4 7.4
2017-Sep-06 20:31N 25°39' W 080°04'4 7.9
2017-Sep-06 20:00N 25°43' W 080°04'4 7.8
2017-Sep-06 19:30N 25°46' W 080°08'1 2.4
2017-Sep-06 19:01N 25°46' W 080°09'0 0.0
2017-Sep-06 18:24N 25°46' W 080°09'0 0.0
2017-Sep-06 17:54N 25°46' W 080°09'0 0.0
2017-Sep-06 17:24N 25°46' W 080°09'0 0.0
2017-Sep-06 16:39N 25°46' W 080°09'0 0.0
2017-Sep-06 16:24N 25°46' W 080°09'0 0.0
2017-Sep-06 15:57N 25°46' W 080°09'0 0.0
2017-Sep-06 15:27N 25°46' W 080°09'0 0.0
2017-Sep-06 14:54N 25°46' W 080°09'0 0.0
2017-Sep-06 14:27N 25°46' W 080°09'0 0.0
2017-Sep-06 13:42N 25°46' W 080°09'0 0.0
2017-Sep-06 13:27N 25°46' W 080°09'0 0.0
2017-Sep-06 13:00N 25°46' W 080°09'0 0.0
2017-Sep-06 12:24N 25°46' W 080°09'0 0.0
2017-Sep-06 12:00N 25°46' W 080°09'0 0.0
2017-Sep-06 11:30N 25°46' W 080°09'0 0.0
2017-Sep-06 11:00N 25°46' W 080°09'0 0.0
2017-Sep-06 10:30N 25°46' W 080°09'0 0.2
2017-Sep-06 10:00N 25°46' W 080°09'4 7.4
2017-Sep-06 09:30N 25°46' W 080°05'4 8.5
2017-Sep-06 09:00N 25°47' W 079°60'4 8.1
2017-Sep-06 08:30N 25°48' W 079°56'4 8.2
2017-Sep-06 08:00N 25°49' W 079°51'4 8.1
2017-Sep-06 07:30N 25°50' W 079°47'4 7.9
2017-Sep-06 07:00N 25°51' W 079°43'4 7.8
2017-Sep-06 06:27N 25°52' W 079°38'  
Track history (hours):
 
Tides and Currents Weather Stations Pressure Air Temp Water Temp Dewpoint Dewpoint Depression Visibility Wind Speed Wind Dir Waves Ship Positions

Lady Joy

Last reported at 2017-Sep-14 20:07 UTC. Time now 2017-Sep-20 18:22 UTC.
Position N 25°58' W 079°33'.

Length 50 m; draft 2.8 m.

Type: Pleasure craft. MMSI: 538080044.

Date/timePositionNaut miles runAvg speedWind from/ knotsBaromVisibWave heightAir tempDewpointWater temp
2017-Sep-14 20:07N 25°58' W 079°33'1 8.6
2017-Sep-14 19:57N 25°58' W 079°35'4 8.4
2017-Sep-14 19:30N 25°57' W 079°39'4 8.4
2017-Sep-14 19:00N 25°56' W 079°43'4 8.8
2017-Sep-14 18:30N 25°55' W 079°48'3 6.0
2017-Sep-14 18:01N 25°53' W 079°51'4 7.8
2017-Sep-14 17:30N 25°52' W 079°55'611.9
2017-Sep-14 17:00N 25°50' W 080°01'611.2
2017-Sep-14 16:30N 25°46' W 080°06'3 6.0
2017-Sep-14 16:00N 25°46' W 080°09'0 0.0
2017-Sep-14 15:30N 25°46' W 080°09'0 0.0
2017-Sep-14 15:00N 25°46' W 080°09'0 0.0
2017-Sep-14 14:30N 25°46' W 080°09'0 0.0
2017-Sep-14 14:00N 25°46' W 080°09'1 1.1
2017-Sep-14 13:31N 25°46' W 080°08'3 5.0
2017-Sep-14 13:00N 25°46' W 080°06'2 4.2
2017-Sep-14 12:30N 25°45' W 080°04'611.8
2017-Sep-14 12:00N 25°39' W 080°02'611.8
2017-Sep-14 11:30N 25°34' W 080°00'  
2017-Sep-06 22:35N 25°24' W 080°07'1 8.6
2017-Sep-06 22:30N 25°24' W 080°07'4 7.7
2017-Sep-06 22:00N 25°28' W 080°06'4 7.4
2017-Sep-06 21:30N 25°32' W 080°05'4 8.1
2017-Sep-06 21:00N 25°36' W 080°05'4 7.4
2017-Sep-06 20:31N 25°39' W 080°04'4 7.9
2017-Sep-06 20:00N 25°43' W 080°04'4 7.8
2017-Sep-06 19:30N 25°46' W 080°08'1 2.4
2017-Sep-06 19:01N 25°46' W 080°09'0 0.0
2017-Sep-06 18:24N 25°46' W 080°09'0 0.0
2017-Sep-06 17:54N 25°46' W 080°09'0 0.0
2017-Sep-06 17:24N 25°46' W 080°09'0 0.0
2017-Sep-06 16:39N 25°46' W 080°09'0 0.0
2017-Sep-06 16:24N 25°46' W 080°09'0 0.0
2017-Sep-06 15:57N 25°46' W 080°09'0 0.0
2017-Sep-06 15:27N 25°46' W 080°09'0 0.0
2017-Sep-06 14:54N 25°46' W 080°09'0 0.0
2017-Sep-06 14:27N 25°46' W 080°09'0 0.0
2017-Sep-06 13:42N 25°46' W 080°09'0 0.0
2017-Sep-06 13:27N 25°46' W 080°09'0 0.0
2017-Sep-06 13:00N 25°46' W 080°09'0 0.0
2017-Sep-06 12:24N 25°46' W 080°09'0 0.0
2017-Sep-06 12:00N 25°46' W 080°09'0 0.0
2017-Sep-06 11:30N 25°46' W 080°09'0 0.0
2017-Sep-06 11:00N 25°46' W 080°09'0 0.0
2017-Sep-06 10:30N 25°46' W 080°09'0 0.2
2017-Sep-06 10:00N 25°46' W 080°09'4 7.4
2017-Sep-06 09:30N 25°46' W 080°05'4 8.5
2017-Sep-06 09:00N 25°47' W 079°60'4 8.1
2017-Sep-06 08:30N 25°48' W 079°56'4 8.2
2017-Sep-06 08:00N 25°49' W 079°51'4 8.1
2017-Sep-06 07:30N 25°50' W 079°47'4 7.9
2017-Sep-06 07:00N 25°51' W 079°43'4 7.8
2017-Sep-06 06:27N 25°52' W 079°38'  

Dump ship's entire track history